createdAt,value
2023-04-06T00:02:06.366Z,1.97
2023-04-06T00:07:29.729Z,2.06
2023-04-06T00:12:52.093Z,1.96
2023-04-06T00:18:14.812Z,2.10
2023-04-06T00:23:37.193Z,1.94
2023-04-06T00:29:00.525Z,2.01
2023-04-06T00:34:22.878Z,1.90
2023-04-06T00:39:45.143Z,1.78
2023-04-06T00:45:07.428Z,1.82
2023-04-06T00:50:29.630Z,1.77
2023-04-06T00:55:51.685Z,1.74
2023-04-06T01:01:17.021Z,1.63
2023-04-06T01:06:40.297Z,1.56
2023-04-06T01:12:03.697Z,1.46
2023-04-06T01:17:30.184Z,1.48
2023-04-06T01:22:59.526Z,1.37
2023-04-06T01:28:22.852Z,1.40
2023-04-06T01:34:01.156Z,1.42
2023-04-06T01:39:23.323Z,1.32
2023-04-06T01:44:47.028Z,1.27
2023-04-06T01:50:11.435Z,1.24
2023-04-06T01:55:38.881Z,1.20
2023-04-06T02:01:25.611Z,1.12
2023-04-06T02:06:51.824Z,1.09
2023-04-06T02:12:19.017Z,1.12
2023-04-06T02:17:42.934Z,1.11
2023-04-06T02:23:05.632Z,1.08
2023-04-06T02:28:27.913Z,0.88
2023-04-06T02:33:50.533Z,0.96
2023-04-06T02:39:13.897Z,0.98
2023-04-06T02:44:37.660Z,0.91
2023-04-06T02:49:59.954Z,0.90
2023-04-06T02:55:22.641Z,0.90
2023-04-06T03:00:45.771Z,0.91
2023-04-06T03:06:09.065Z,0.88
2023-04-06T03:11:48.329Z,0.84
2023-04-06T03:17:12.433Z,0.75
2023-04-06T03:22:37.886Z,1.04
2023-04-06T03:28:10.979Z,0.88
2023-04-06T03:33:43.503Z,1.02
2023-04-06T03:39:12.188Z,1.04
2023-04-06T03:44:38.975Z,1.09
2023-04-06T03:50:05.205Z,1.10
2023-04-06T03:55:31.783Z,1.30
2023-04-06T04:00:55.166Z,1.39
2023-04-06T04:06:17.479Z,1.60
2023-04-06T04:11:39.791Z,1.73
2023-04-06T04:17:02.850Z,1.75
2023-04-06T04:22:27.846Z,2.12
2023-04-06T04:27:52.245Z,2.56
2023-04-06T04:33:17.564Z,3.01
2023-04-06T04:38:41.507Z,3.34
2023-04-06T04:44:04.483Z,3.52
2023-04-06T04:49:28.199Z,4.01
2023-04-06T04:54:53.804Z,4.34
2023-04-06T05:00:22.457Z,4.68
2023-04-06T05:05:46.419Z,4.79
2023-04-06T05:11:11.947Z,5.12
2023-04-06T05:16:39.463Z,5.28
2023-04-06T05:22:03.089Z,5.71
2023-04-06T05:28:05.110Z,5.89
2023-04-06T05:33:31.273Z,6.10
2023-04-06T05:45:29.628Z,6.20
2023-04-06T05:51:49.025Z,6.53
2023-04-06T06:04:20.454Z,6.77
2023-04-06T06:10:09.803Z,6.86
2023-04-06T06:21:22.074Z,7.20
2023-04-06T06:32:30.134Z,8.23
2023-04-06T06:37:52.121Z,8.47
2023-04-06T06:43:17.720Z,8.28
2023-04-06T06:49:06.093Z,8.41
2023-04-06T06:54:28.540Z,8.11
2023-04-06T06:59:51.366Z,8.17
2023-04-06T07:05:26.886Z,8.03
2023-04-06T07:10:55.056Z,8.32
2023-04-06T07:16:18.005Z,8.73
2023-04-06T07:21:40.463Z,8.77
2023-04-06T07:27:03.336Z,8.85
2023-04-06T07:32:32.962Z,9.03
2023-04-06T07:37:59.673Z,9.32
2023-04-06T07:43:24.379Z,9.81
2023-04-06T07:48:47.379Z,9.75
2023-04-06T07:54:12.742Z,9.41
2023-04-06T07:59:35.222Z,9.44
2023-04-06T08:04:57.420Z,9.45
2023-04-06T08:10:19.856Z,9.53
2023-04-06T08:15:42.087Z,9.94
2023-04-06T08:21:04.652Z,10.48
2023-04-06T08:26:27.105Z,10.27
2023-04-06T08:31:49.516Z,9.92
2023-04-06T08:37:11.525Z,10.13
2023-04-06T08:42:35.132Z,10.01
2023-04-06T08:48:03.207Z,9.88
2023-04-06T08:53:25.686Z,10.00
2023-04-06T08:58:52.922Z,10.44
2023-04-06T09:04:17.765Z,10.62
2023-04-06T09:09:45.016Z,10.76
2023-04-06T09:15:08.156Z,10.29
2023-04-06T09:20:30.409Z,10.29
2023-04-06T09:25:52.671Z,10.27
2023-04-06T09:31:23.835Z,10.38
2023-04-06T09:36:46.504Z,10.35
2023-04-06T09:42:12.185Z,10.32
2023-04-06T09:47:37.720Z,10.22
2023-04-06T09:53:01.907Z,10.29
2023-04-06T09:58:27.957Z,10.21
2023-04-06T10:04:05.349Z,10.56
2023-04-06T10:09:37.110Z,10.54
2023-04-06T10:14:59.672Z,10.54
2023-04-06T10:20:25.978Z,10.69
2023-04-06T10:25:56.467Z,10.55
2023-04-06T10:31:29.244Z,10.73
2023-04-06T10:36:51.797Z,10.82
2023-04-06T10:42:16.284Z,10.88
2023-04-06T10:47:44.770Z,10.71
2023-04-06T10:53:06.810Z,10.59
2023-04-06T10:58:29.868Z,10.69
2023-04-06T11:03:55.586Z,10.43
2023-04-06T11:09:31.774Z,10.71
2023-04-06T11:15:08.058Z,10.82
2023-04-06T11:20:30.470Z,10.89
2023-04-06T11:25:54.197Z,10.64
2023-04-06T11:31:16.552Z,10.76
2023-04-06T11:36:42.916Z,10.71
2023-04-06T11:42:07.602Z,10.79
2023-04-06T11:47:34.249Z,10.67
2023-04-06T11:53:04.605Z,10.69
2023-04-06T11:58:26.709Z,10.61
2023-04-06T12:03:49.341Z,10.71
2023-04-06T12:09:11.769Z,10.45
2023-04-06T12:14:34.287Z,10.45
2023-04-06T12:20:05.375Z,10.47
2023-04-06T12:25:27.857Z,10.51
2023-04-06T12:30:49.890Z,10.60
2023-04-06T12:36:17.037Z,10.57
2023-04-06T12:41:41.992Z,10.70
2023-04-06T12:47:08.816Z,10.59
2023-04-06T12:52:33.526Z,10.49
2023-04-06T12:57:56.748Z,10.36
2023-04-06T13:03:20.633Z,10.60
2023-04-06T13:08:42.870Z,10.32
2023-04-06T13:14:17.886Z,10.23
2023-04-06T13:19:40.140Z,10.17
2023-04-06T13:25:02.288Z,10.38
2023-04-06T13:30:28.002Z,10.24
2023-04-06T13:35:50.049Z,10.27
2023-04-06T13:41:19.352Z,10.16
2023-04-06T13:46:41.593Z,10.30
2023-04-06T13:52:04.817Z,10.00
2023-04-06T13:57:29.557Z,10.00
2023-04-06T14:02:52.561Z,9.99
2023-04-06T14:08:15.661Z,9.75
2023-04-06T14:13:37.870Z,9.88
2023-04-06T14:19:00.504Z,9.67
2023-04-06T14:24:23.299Z,9.63
2023-04-06T14:29:48.278Z,9.35
2023-04-06T14:35:20.366Z,9.17
2023-04-06T14:40:58.361Z,9.37
2023-04-06T14:46:22.349Z,9.04
2023-04-06T14:51:44.446Z,8.87
2023-04-06T14:57:07.910Z,8.95
2023-04-06T15:02:31.324Z,8.61
2023-04-06T15:07:59.575Z,8.39
2023-04-06T15:13:25.133Z,8.30
2023-04-06T15:19:03.217Z,8.22
2023-04-06T15:24:40.017Z,7.78
2023-04-06T15:30:02.613Z,7.62
2023-04-06T15:35:25.372Z,7.49
2023-04-06T15:40:51.623Z,7.40
2023-04-06T15:46:17.794Z,7.18
2023-04-06T15:51:40.906Z,6.97
2023-04-06T15:57:03.454Z,6.78
2023-04-06T16:02:26.940Z,6.64
2023-04-06T16:07:49.782Z,6.52
2023-04-06T16:13:15.392Z,6.23
2023-04-06T16:18:37.823Z,6.02
2023-04-06T16:24:00.266Z,5.90
2023-04-06T16:42:44.542Z,5.31
2023-04-06T16:48:07.810Z,5.00
2023-04-06T16:53:30.162Z,4.67
2023-04-06T16:58:52.891Z,4.58
2023-04-06T17:04:15.932Z,4.43
2023-04-06T17:09:40.546Z,4.09
2023-04-06T17:15:02.927Z,3.96
2023-04-06T17:20:25.358Z,3.93
2023-04-06T17:25:48.511Z,3.92
2023-04-06T17:31:12.760Z,3.81
2023-04-06T17:36:35.180Z,3.78
2023-04-06T17:42:01.083Z,3.78
2023-04-06T17:47:23.842Z,3.52
2023-04-06T17:58:13.078Z,3.38
2023-04-06T18:03:35.641Z,3.17
2023-04-06T18:08:57.969Z,3.13
2023-04-06T18:14:20.059Z,3.02
2023-04-06T18:19:42.340Z,3.00
2023-04-06T18:25:05.407Z,2.98
2023-04-06T18:30:28.110Z,2.87
2023-04-06T18:35:50.152Z,2.77
2023-04-06T18:41:12.281Z,2.97
2023-04-06T18:46:35.226Z,2.91
2023-04-06T18:51:59.773Z,2.77
2023-04-06T18:57:21.862Z,2.50
2023-04-06T19:02:45.151Z,2.66
2023-04-06T19:08:07.100Z,2.51
2023-04-06T19:13:32.717Z,2.35
2023-04-06T19:19:00.323Z,2.28
2023-04-06T19:24:22.418Z,2.15
2023-04-06T19:29:45.233Z,2.22
2023-04-06T19:35:09.677Z,2.24
2023-04-06T19:40:31.894Z,2.17
2023-04-06T19:45:56.978Z,2.02
2023-04-06T19:51:19.351Z,2.00
2023-04-06T19:56:41.750Z,1.87
2023-04-06T20:02:03.817Z,1.87
2023-04-06T20:07:29.851Z,1.63
2023-04-06T20:12:58.777Z,1.75
2023-04-06T20:18:22.549Z,1.72
2023-04-06T20:23:45.483Z,1.52
2023-04-06T20:35:07.124Z,1.64
2023-04-06T20:40:40.240Z,1.24
2023-04-06T20:46:17.325Z,1.17
2023-04-06T20:51:41.092Z,1.16
2023-04-06T20:57:14.846Z,1.39
2023-04-06T21:02:49.906Z,1.02
2023-04-06T21:14:57.229Z,0.75
2023-04-06T21:20:28.221Z,0.72
2023-04-06T21:25:58.417Z,0.61
2023-04-06T21:31:22.146Z,0.75
2023-04-06T21:36:44.539Z,0.62
2023-04-06T21:42:07.962Z,0.59
2023-04-06T21:47:30.268Z,0.52
2023-04-06T21:52:53.025Z,0.48
2023-04-06T21:58:15.988Z,0.41
2023-04-06T22:03:40.043Z,0.34
2023-04-06T22:09:03.067Z,0.23
2023-04-06T22:14:28.690Z,0.26
2023-04-06T22:19:50.720Z,0.34
2023-04-06T22:25:13.239Z,0.33
2023-04-06T22:54:41.951Z,0.10
2023-04-06T23:11:35.255Z,-0.20
2023-04-06T23:16:58.030Z,0.02
2023-04-06T23:22:20.390Z,-0.25
2023-04-06T23:27:42.609Z,-0.10
2023-04-06T23:33:05.049Z,-0.16
2023-04-06T23:38:27.275Z,-0.18
2023-04-06T23:43:49.516Z,-0.35
2023-04-06T23:49:11.738Z,-0.30
2023-04-06T23:54:34.324Z,-0.36
2023-04-06T23:59:57.859Z,-0.40
